sensor_id;sensor_type;location;lat;lon;timestamp;temperature;humidity
24458;DHT22;12629;50.860;5.714;2022-10-31T00:00:43;14.40;99.90
24458;DHT22;12629;50.860;5.714;2022-10-31T00:03:10;14.30;99.90
24458;DHT22;12629;50.860;5.714;2022-10-31T00:05:41;14.20;99.90
24458;DHT22;12629;50.860;5.714;2022-10-31T00:08:08;14.10;99.90
24458;DHT22;12629;50.860;5.714;2022-10-31T00:10:38;13.90;99.90
24458;DHT22;12629;50.860;5.714;2022-10-31T00:13:06;13.90;99.90
24458;DHT22;12629;50.860;5.714;2022-10-31T00:15:34;13.90;99.90
24458;DHT22;12629;50.860;5.714;2022-10-31T00:18:01;13.80;99.90
24458;DHT22;12629;50.860;5.714;2022-10-31T00:20:29;13.80;99.90
24458;DHT22;12629;50.860;5.714;2022-10-31T00:22:58;13.80;99.90
24458;DHT22;12629;50.860;5.714;2022-10-31T00:25:25;13.70;99.90
24458;DHT22;12629;50.860;5.714;2022-10-31T00:27:54;13.70;99.90
24458;DHT22;12629;50.860;5.714;2022-10-31T00:30:21;13.80;99.90
24458;DHT22;12629;50.860;5.714;2022-10-31T00:32:48;13.90;99.90
24458;DHT22;12629;50.860;5.714;2022-10-31T00:35:15;13.90;99.90
24458;DHT22;12629;50.860;5.714;2022-10-31T00:37:42;13.90;99.90
24458;DHT22;12629;50.860;5.714;2022-10-31T00:40:11;13.80;99.90
24458;DHT22;12629;50.860;5.714;2022-10-31T00:42:39;13.70;99.90
24458;DHT22;12629;50.860;5.714;2022-10-31T00:45:09;13.50;99.90
24458;DHT22;12629;50.860;5.714;2022-10-31T00:47:37;13.50;99.90
24458;DHT22;12629;50.860;5.714;2022-10-31T00:50:05;13.50;99.90
24458;DHT22;12629;50.860;5.714;2022-10-31T00:52:32;13.60;99.90
24458;DHT22;12629;50.860;5.714;2022-10-31T00:54:59;13.60;99.90
24458;DHT22;12629;50.860;5.714;2022-10-31T00:57:27;13.50;99.90
24458;DHT22;12629;50.860;5.714;2022-10-31T00:59:54;13.50;99.90
24458;DHT22;12629;50.860;5.714;2022-10-31T01:02:22;13.50;99.90
24458;DHT22;12629;50.860;5.714;2022-10-31T01:04:50;13.50;99.90
24458;DHT22;12629;50.860;5.714;2022-10-31T01:07:17;13.50;99.90
24458;DHT22;12629;50.860;5.714;2022-10-31T01:09:44;13.50;99.90
24458;DHT22;12629;50.860;5.714;2022-10-31T01:12:11;13.50;99.90
24458;DHT22;12629;50.860;5.714;2022-10-31T01:14:41;13.50;99.90
24458;DHT22;12629;50.860;5.714;2022-10-31T01:17:09;13.50;99.90
24458;DHT22;12629;50.860;5.714;2022-10-31T01:19:37;13.50;99.90
24458;DHT22;12629;50.860;5.714;2022-10-31T01:22:04;13.40;99.90
24458;DHT22;12629;50.860;5.714;2022-10-31T01:24:32;13.30;99.90
24458;DHT22;12629;50.860;5.714;2022-10-31T01:26:59;13.30;99.90
24458;DHT22;12629;50.860;5.714;2022-10-31T01:29:26;13.30;99.90
24458;DHT22;12629;50.860;5.714;2022-10-31T01:31:54;13.20;99.90
24458;DHT22;12629;50.860;5.714;2022-10-31T01:34:21;13.20;99.90
24458;DHT22;12629;50.860;5.714;2022-10-31T01:36:49;13.10;99.90
24458;DHT22;12629;50.860;5.714;2022-10-31T01:39:18;13.00;99.90
24458;DHT22;12629;50.860;5.714;2022-10-31T01:41:47;13.00;99.90
24458;DHT22;12629;50.860;5.714;2022-10-31T01:47:25;12.90;99.90
24458;DHT22;12629;50.860;5.714;2022-10-31T01:49:57;12.80;99.90
24458;DHT22;12629;50.860;5.714;2022-10-31T01:52:31;12.80;99.90
24458;DHT22;12629;50.860;5.714;2022-10-31T01:55:03;12.70;99.90
24458;DHT22;12629;50.860;5.714;2022-10-31T01:57:33;12.70;99.90
24458;DHT22;12629;50.860;5.714;2022-10-31T02:00:06;12.80;99.90
24458;DHT22;12629;50.860;5.714;2022-10-31T02:02:33;12.80;99.90
24458;DHT22;12629;50.860;5.714;2022-10-31T02:05:02;12.90;99.90
24458;DHT22;12629;50.860;5.714;2022-10-31T02:07:36;12.90;99.90
24458;DHT22;12629;50.860;5.714;2022-10-31T02:10:05;13.00;99.90
24458;DHT22;12629;50.860;5.714;2022-10-31T02:12:32;13.00;99.90
24458;DHT22;12629;50.860;5.714;2022-10-31T02:15:03;12.90;99.90
24458;DHT22;12629;50.860;5.714;2022-10-31T02:17:31;12.90;99.90
24458;DHT22;12629;50.860;5.714;2022-10-31T02:20:06;12.90;99.90
24458;DHT22;12629;50.860;5.714;2022-10-31T02:22:43;12.90;99.90
24458;DHT22;12629;50.860;5.714;2022-10-31T02:25:39;13.00;99.90
24458;DHT22;12629;50.860;5.714;2022-10-31T02:28:30;13.00;99.90
24458;DHT22;12629;50.860;5.714;2022-10-31T02:31:13;12.90;99.90
24458;DHT22;12629;50.860;5.714;2022-10-31T02:33:45;12.80;99.90
24458;DHT22;12629;50.860;5.714;2022-10-31T02:36:20;12.70;99.90
24458;DHT22;12629;50.860;5.714;2022-10-31T02:38:55;12.60;99.90
24458;DHT22;12629;50.860;5.714;2022-10-31T02:41:28;12.50;99.90
24458;DHT22;12629;50.860;5.714;2022-10-31T02:44:05;12.50;99.90
24458;DHT22;12629;50.860;5.714;2022-10-31T02:46:39;12.40;99.90
24458;DHT22;12629;50.860;5.714;2022-10-31T02:49:14;12.40;99.90
24458;DHT22;12629;50.860;5.714;2022-10-31T02:51:45;12.40;99.90
24458;DHT22;12629;50.860;5.714;2022-10-31T02:54:21;12.40;99.90
24458;DHT22;12629;50.860;5.714;2022-10-31T02:56:49;12.30;99.90
24458;DHT22;12629;50.860;5.714;2022-10-31T02:59:18;12.30;99.90
24458;DHT22;12629;50.860;5.714;2022-10-31T03:02:14;12.30;99.90
24458;DHT22;12629;50.860;5.714;2022-10-31T03:05:01;12.20;99.90
24458;DHT22;12629;50.860;5.714;2022-10-31T03:07:38;12.20;99.90
24458;DHT22;12629;50.860;5.714;2022-10-31T03:10:14;12.00;99.90
24458;DHT22;12629;50.860;5.714;2022-10-31T03:12:49;12.10;99.90
24458;DHT22;12629;50.860;5.714;2022-10-31T03:15:22;12.10;99.90
24458;DHT22;12629;50.860;5.714;2022-10-31T03:17:56;12.10;99.90
24458;DHT22;12629;50.860;5.714;2022-10-31T03:20:29;12.10;99.90
24458;DHT22;12629;50.860;5.714;2022-10-31T03:22:58;12.10;99.90
24458;DHT22;12629;50.860;5.714;2022-10-31T03:25:28;12.00;99.90
24458;DHT22;12629;50.860;5.714;2022-10-31T03:27:56;12.10;99.90
24458;DHT22;12629;50.860;5.714;2022-10-31T03:30:25;12.20;99.90
24458;DHT22;12629;50.860;5.714;2022-10-31T03:32:55;12.20;99.90
24458;DHT22;12629;50.860;5.714;2022-10-31T03:35:24;12.20;99.90
24458;DHT22;12629;50.860;5.714;2022-10-31T03:37:54;12.20;99.90
24458;DHT22;12629;50.860;5.714;2022-10-31T03:40:23;12.30;99.90
24458;DHT22;12629;50.860;5.714;2022-10-31T03:42:56;12.40;99.90
24458;DHT22;12629;50.860;5.714;2022-10-31T03:45:26;12.40;99.90
24458;DHT22;12629;50.860;5.714;2022-10-31T03:47:56;12.30;99.90
24458;DHT22;12629;50.860;5.714;2022-10-31T03:50:27;12.30;99.90
24458;DHT22;12629;50.860;5.714;2022-10-31T03:52:58;12.30;99.90
24458;DHT22;12629;50.860;5.714;2022-10-31T03:55:30;12.30;99.90
24458;DHT22;12629;50.860;5.714;2022-10-31T03:57:59;12.30;99.90
24458;DHT22;12629;50.860;5.714;2022-10-31T04:00:27;12.30;99.90
24458;DHT22;12629;50.860;5.714;2022-10-31T04:03:05;12.20;99.90
24458;DHT22;12629;50.860;5.714;2022-10-31T04:05:35;12.30;99.90
24458;DHT22;12629;50.860;5.714;2022-10-31T04:08:08;12.30;99.90
24458;DHT22;12629;50.860;5.714;2022-10-31T04:10:37;12.30;99.90
24458;DHT22;12629;50.860;5.714;2022-10-31T04:13:08;12.40;99.90
24458;DHT22;12629;50.860;5.714;2022-10-31T04:15:37;12.40;99.90
24458;DHT22;12629;50.860;5.714;2022-10-31T04:18:06;12.40;99.90
24458;DHT22;12629;50.860;5.714;2022-10-31T04:20:35;12.40;99.90
24458;DHT22;12629;50.860;5.714;2022-10-31T04:23:03;12.30;99.90
24458;DHT22;12629;50.860;5.714;2022-10-31T04:25:31;12.20;99.90
24458;DHT22;12629;50.860;5.714;2022-10-31T04:27:58;12.20;99.90
24458;DHT22;12629;50.860;5.714;2022-10-31T04:30:25;12.20;99.90
24458;DHT22;12629;50.860;5.714;2022-10-31T04:32:52;12.10;99.90
24458;DHT22;12629;50.860;5.714;2022-10-31T04:35:20;12.00;99.90
24458;DHT22;12629;50.860;5.714;2022-10-31T04:37:48;12.00;99.90
24458;DHT22;12629;50.860;5.714;2022-10-31T04:40:15;12.10;99.90
24458;DHT22;12629;50.860;5.714;2022-10-31T04:42:42;12.00;99.90
24458;DHT22;12629;50.860;5.714;2022-10-31T04:45:09;12.00;99.90
24458;DHT22;12629;50.860;5.714;2022-10-31T04:47:36;12.00;99.90
24458;DHT22;12629;50.860;5.714;2022-10-31T04:50:04;12.10;99.90
24458;DHT22;12629;50.860;5.714;2022-10-31T04:52:38;11.90;99.90
24458;DHT22;12629;50.860;5.714;2022-10-31T04:55:06;11.90;99.90
24458;DHT22;12629;50.860;5.714;2022-10-31T04:57:40;11.80;99.90
24458;DHT22;12629;50.860;5.714;2022-10-31T05:00:08;11.80;99.90
24458;DHT22;12629;50.860;5.714;2022-10-31T05:02:43;11.70;99.90
24458;DHT22;12629;50.860;5.714;2022-10-31T05:05:10;11.70;99.90
24458;DHT22;12629;50.860;5.714;2022-10-31T05:07:40;11.70;99.90
24458;DHT22;12629;50.860;5.714;2022-10-31T05:10:08;11.70;99.90
24458;DHT22;12629;50.860;5.714;2022-10-31T05:12:36;11.70;99.90
24458;DHT22;12629;50.860;5.714;2022-10-31T05:15:05;11.90;99.90
24458;DHT22;12629;50.860;5.714;2022-10-31T05:17:32;12.00;99.90
24458;DHT22;12629;50.860;5.714;2022-10-31T05:19:59;12.10;99.90
24458;DHT22;12629;50.860;5.714;2022-10-31T05:22:26;12.20;99.90
24458;DHT22;12629;50.860;5.714;2022-10-31T05:24:55;12.10;99.90
24458;DHT22;12629;50.860;5.714;2022-10-31T05:27:22;12.10;99.90
24458;DHT22;12629;50.860;5.714;2022-10-31T05:29:49;12.10;99.90
24458;DHT22;12629;50.860;5.714;2022-10-31T05:32:16;12.10;99.90
24458;DHT22;12629;50.860;5.714;2022-10-31T05:34:43;12.00;99.90
24458;DHT22;12629;50.860;5.714;2022-10-31T05:37:10;12.00;99.90
24458;DHT22;12629;50.860;5.714;2022-10-31T05:39:38;11.90;99.90
24458;DHT22;12629;50.860;5.714;2022-10-31T05:42:06;11.90;99.90
24458;DHT22;12629;50.860;5.714;2022-10-31T05:44:33;11.90;99.90
24458;DHT22;12629;50.860;5.714;2022-10-31T05:47:00;11.90;99.90
24458;DHT22;12629;50.860;5.714;2022-10-31T05:49:28;12.00;99.90
24458;DHT22;12629;50.860;5.714;2022-10-31T05:51:55;11.90;99.90
24458;DHT22;12629;50.860;5.714;2022-10-31T05:54:22;11.90;99.90
24458;DHT22;12629;50.860;5.714;2022-10-31T05:56:49;11.90;99.90
24458;DHT22;12629;50.860;5.714;2022-10-31T05:59:17;11.90;99.90
24458;DHT22;12629;50.860;5.714;2022-10-31T06:01:44;11.80;99.90
24458;DHT22;12629;50.860;5.714;2022-10-31T06:04:12;11.80;99.90
24458;DHT22;12629;50.860;5.714;2022-10-31T06:06:39;11.70;99.90
24458;DHT22;12629;50.860;5.714;2022-10-31T06:09:06;11.80;99.90
24458;DHT22;12629;50.860;5.714;2022-10-31T06:11:33;11.80;99.90
24458;DHT22;12629;50.860;5.714;2022-10-31T06:14:00;11.70;99.90
24458;DHT22;12629;50.860;5.714;2022-10-31T06:16:29;11.60;99.90
24458;DHT22;12629;50.860;5.714;2022-10-31T06:18:56;11.50;99.90
24458;DHT22;12629;50.860;5.714;2022-10-31T06:21:23;11.50;99.90
24458;DHT22;12629;50.860;5.714;2022-10-31T06:23:51;11.40;99.90
24458;DHT22;12629;50.860;5.714;2022-10-31T06:26:18;11.60;99.90
24458;DHT22;12629;50.860;5.714;2022-10-31T06:28:45;11.70;99.90
24458;DHT22;12629;50.860;5.714;2022-10-31T06:31:12;11.70;99.90
24458;DHT22;12629;50.860;5.714;2022-10-31T06:33:42;11.70;99.90
24458;DHT22;12629;50.860;5.714;2022-10-31T06:36:10;11.70;99.90
24458;DHT22;12629;50.860;5.714;2022-10-31T06:38:37;11.80;99.90
24458;DHT22;12629;50.860;5.714;2022-10-31T06:41:05;11.90;99.90
24458;DHT22;12629;50.860;5.714;2022-10-31T06:43:33;11.90;99.90
24458;DHT22;12629;50.860;5.714;2022-10-31T06:46:03;11.90;99.90
24458;DHT22;12629;50.860;5.714;2022-10-31T06:48:30;12.00;99.90
24458;DHT22;12629;50.860;5.714;2022-10-31T06:50:59;12.00;99.90
24458;DHT22;12629;50.860;5.714;2022-10-31T06:53:27;12.00;99.90
24458;DHT22;12629;50.860;5.714;2022-10-31T06:55:55;12.00;99.90
24458;DHT22;12629;50.860;5.714;2022-10-31T06:58:23;12.00;99.90
24458;DHT22;12629;50.860;5.714;2022-10-31T07:00:50;12.10;99.90
24458;DHT22;12629;50.860;5.714;2022-10-31T07:03:18;12.10;99.90
24458;DHT22;12629;50.860;5.714;2022-10-31T07:05:46;12.00;99.90
24458;DHT22;12629;50.860;5.714;2022-10-31T07:08:15;11.90;99.90
24458;DHT22;12629;50.860;5.714;2022-10-31T07:10:43;11.90;99.90
24458;DHT22;12629;50.860;5.714;2022-10-31T07:13:12;11.90;99.90
24458;DHT22;12629;50.860;5.714;2022-10-31T07:15:41;12.00;99.90
24458;DHT22;12629;50.860;5.714;2022-10-31T07:18:10;12.10;99.90
24458;DHT22;12629;50.860;5.714;2022-10-31T07:20:37;12.10;99.90
24458;DHT22;12629;50.860;5.714;2022-10-31T07:23:04;12.10;99.90
24458;DHT22;12629;50.860;5.714;2022-10-31T07:25:33;12.30;99.90
24458;DHT22;12629;50.860;5.714;2022-10-31T07:28:00;12.30;99.90
24458;DHT22;12629;50.860;5.714;2022-10-31T07:30:28;12.30;99.90
24458;DHT22;12629;50.860;5.714;2022-10-31T07:32:55;12.30;99.90
24458;DHT22;12629;50.860;5.714;2022-10-31T07:35:24;12.40;99.90
24458;DHT22;12629;50.860;5.714;2022-10-31T07:37:52;12.50;99.90
24458;DHT22;12629;50.860;5.714;2022-10-31T07:40:21;12.60;99.90
24458;DHT22;12629;50.860;5.714;2022-10-31T07:42:51;12.70;99.90
24458;DHT22;12629;50.860;5.714;2022-10-31T07:45:20;12.80;99.90
24458;DHT22;12629;50.860;5.714;2022-10-31T07:47:49;13.00;99.90
24458;DHT22;12629;50.860;5.714;2022-10-31T07:50:17;13.10;99.90
24458;DHT22;12629;50.860;5.714;2022-10-31T07:52:45;13.20;99.90
24458;DHT22;12629;50.860;5.714;2022-10-31T07:55:13;13.30;99.90
24458;DHT22;12629;50.860;5.714;2022-10-31T07:57:41;13.30;99.90
24458;DHT22;12629;50.860;5.714;2022-10-31T08:00:12;13.30;99.90
24458;DHT22;12629;50.860;5.714;2022-10-31T08:02:39;13.20;99.90
24458;DHT22;12629;50.860;5.714;2022-10-31T08:05:07;13.30;99.90
24458;DHT22;12629;50.860;5.714;2022-10-31T08:07:36;13.40;99.90
24458;DHT22;12629;50.860;5.714;2022-10-31T08:10:05;13.50;99.90
24458;DHT22;12629;50.860;5.714;2022-10-31T08:12:32;13.50;99.90
24458;DHT22;12629;50.860;5.714;2022-10-31T08:14:59;13.50;99.90
24458;DHT22;12629;50.860;5.714;2022-10-31T08:17:29;13.60;99.90
24458;DHT22;12629;50.860;5.714;2022-10-31T08:19:59;13.60;99.90
24458;DHT22;12629;50.860;5.714;2022-10-31T08:22:26;13.50;99.90
24458;DHT22;12629;50.860;5.714;2022-10-31T08:24:54;13.40;99.90
24458;DHT22;12629;50.860;5.714;2022-10-31T08:27:21;13.50;99.90
24458;DHT22;12629;50.860;5.714;2022-10-31T08:29:48;13.60;99.90
24458;DHT22;12629;50.860;5.714;2022-10-31T08:32:15;13.70;99.90
24458;DHT22;12629;50.860;5.714;2022-10-31T08:34:44;13.80;99.90
24458;DHT22;12629;50.860;5.714;2022-10-31T08:37:11;14.00;99.90
24458;DHT22;12629;50.860;5.714;2022-10-31T08:39:44;14.20;99.90
24458;DHT22;12629;50.860;5.714;2022-10-31T08:42:11;14.40;99.90
24458;DHT22;12629;50.860;5.714;2022-10-31T08:44:39;14.60;99.90
24458;DHT22;12629;50.860;5.714;2022-10-31T08:47:06;14.60;99.90
24458;DHT22;12629;50.860;5.714;2022-10-31T08:49:36;14.60;99.90
24458;DHT22;12629;50.860;5.714;2022-10-31T08:52:05;14.70;99.90
24458;DHT22;12629;50.860;5.714;2022-10-31T23:53:22;17.70;99.90
24458;DHT22;12629;50.860;5.714;2022-10-31T23:55:53;17.60;99.90
24458;DHT22;12629;50.860;5.714;2022-10-31T23:58:20;17.60;99.90
